sensor_id;sensor_type;location;lat;lon;timestamp;pressure;altitude;pressure_sealevel;temperature;humidity
7168;BME280;3625;51.762;14.320;2023-05-21T00:02:10;101080.72;;;13.07;100.00
7168;BME280;3625;51.762;14.320;2023-05-21T00:04:41;101078.19;;;13.02;100.00
7168;BME280;3625;51.762;14.320;2023-05-21T00:07:10;101076.41;;;13.01;100.00
7168;BME280;3625;51.762;14.320;2023-05-21T00:09:38;101078.19;;;13.02;100.00
7168;BME280;3625;51.762;14.320;2023-05-21T00:12:08;101054.53;;;12.90;100.00
7168;BME280;3625;51.762;14.320;2023-05-21T00:14:38;101075.53;;;13.01;100.00
7168;BME280;3625;51.762;14.320;2023-05-21T00:17:07;101078.16;;;13.04;100.00
7168;BME280;3625;51.762;14.320;2023-05-21T00:19:35;101057.94;;;12.97;100.00
7168;BME280;3625;51.762;14.320;2023-05-21T00:22:05;101062.59;;;12.87;100.00
7168;BME280;3625;51.762;14.320;2023-05-21T00:24:34;101067.97;;;12.82;100.00
7168;BME280;3625;51.762;14.320;2023-05-21T00:27:03;101061.91;;;12.77;100.00
7168;BME280;3625;51.762;14.320;2023-05-21T00:29:31;101060.28;;;12.70;100.00
7168;BME280;3625;51.762;14.320;2023-05-21T00:32:01;101054.06;;;12.71;100.00
7168;BME280;3625;51.762;14.320;2023-05-21T00:34:30;101054.84;;;12.76;100.00
7168;BME280;3625;51.762;14.320;2023-05-21T00:36:58;101051.66;;;12.99;100.00
7168;BME280;3625;51.762;14.320;2023-05-21T00:39:28;101051.63;;;13.01;100.00
7168;BME280;3625;51.762;14.320;2023-05-21T00:41:57;101047.19;;;13.01;100.00
7168;BME280;3625;51.762;14.320;2023-05-21T00:44:26;101048.22;;;12.96;100.00
7168;BME280;3625;51.762;14.320;2023-05-21T00:47:02;101041.25;;;12.90;100.00
7168;BME280;3625;51.762;14.320;2023-05-21T00:49:31;101042.72;;;13.05;100.00
7168;BME280;3625;51.762;14.320;2023-05-21T00:51:59;101041.59;;;13.15;100.00
7168;BME280;3625;51.762;14.320;2023-05-21T00:54:29;101034.34;;;13.23;100.00
7168;BME280;3625;51.762;14.320;2023-05-21T00:57:00;101028.00;;;13.29;100.00
7168;BME280;3625;51.762;14.320;2023-05-21T00:59:31;101032.28;;;13.34;100.00
7168;BME280;3625;51.762;14.320;2023-05-21T01:02:01;101027.06;;;13.31;100.00
7168;BME280;3625;51.762;14.320;2023-05-21T01:04:32;101033.97;;;13.38;100.00
7168;BME280;3625;51.762;14.320;2023-05-21T01:07:01;101029.78;;;13.28;100.00
7168;BME280;3625;51.762;14.320;2023-05-21T01:09:29;101033.38;;;13.26;100.00
7168;BME280;3625;51.762;14.320;2023-05-21T01:11:58;101033.50;;;13.21;100.00
7168;BME280;3625;51.762;14.320;2023-05-21T01:14:28;101031.91;;;13.14;100.00
7168;BME280;3625;51.762;14.320;2023-05-21T01:17:01;101028.41;;;13.10;100.00
7168;BME280;3625;51.762;14.320;2023-05-21T01:19:30;101022.25;;;13.08;100.00
7168;BME280;3625;51.762;14.320;2023-05-21T01:22:03;101023.34;;;12.98;100.00
7168;BME280;3625;51.762;14.320;2023-05-21T01:24:34;101024.34;;;12.94;100.00
7168;BME280;3625;51.762;14.320;2023-05-21T01:27:03;101019.88;;;12.96;100.00
7168;BME280;3625;51.762;14.320;2023-05-21T01:29:33;101014.56;;;12.96;100.00
7168;BME280;3625;51.762;14.320;2023-05-21T01:32:12;101009.38;;;12.90;100.00
7168;BME280;3625;51.762;14.320;2023-05-21T01:34:51;101012.06;;;12.89;100.00
7168;BME280;3625;51.762;14.320;2023-05-21T01:37:35;101008.66;;;12.83;100.00
7168;BME280;3625;51.762;14.320;2023-05-21T01:40:11;101000.84;;;12.77;100.00
7168;BME280;3625;51.762;14.320;2023-05-21T01:42:44;100973.69;;;12.63;100.00
7168;BME280;3625;51.762;14.320;2023-05-21T01:45:15;100983.38;;;12.66;100.00
7168;BME280;3625;51.762;14.320;2023-05-21T01:47:48;100980.91;;;12.58;100.00
7168;BME280;3625;51.762;14.320;2023-05-21T01:50:17;100950.56;;;12.30;100.00
7168;BME280;3625;51.762;14.320;2023-05-21T01:52:51;100997.59;;;12.63;100.00
7168;BME280;3625;51.762;14.320;2023-05-21T01:55:21;100974.97;;;12.45;100.00
7168;BME280;3625;51.762;14.320;2023-05-21T01:57:52;101009.25;;;12.56;100.00
7168;BME280;3625;51.762;14.320;2023-05-21T02:00:23;101001.28;;;12.56;100.00
7168;BME280;3625;51.762;14.320;2023-05-21T02:02:51;100998.59;;;12.59;100.00
7168;BME280;3625;51.762;14.320;2023-05-21T02:05:20;101000.41;;;12.57;100.00
7168;BME280;3625;51.762;14.320;2023-05-21T02:07:50;101001.22;;;12.61;100.00
7168;BME280;3625;51.762;14.320;2023-05-21T02:10:20;100950.56;;;12.30;100.00
7168;BME280;3625;51.762;14.320;2023-05-21T02:12:50;100984.75;;;12.45;100.00
7168;BME280;3625;51.762;14.320;2023-05-21T02:15:19;100996.00;;;12.55;100.00
7168;BME280;3625;51.762;14.320;2023-05-21T02:17:47;100997.91;;;12.50;100.00
7168;BME280;3625;51.762;14.320;2023-05-21T02:20:18;100995.28;;;12.48;100.00
7168;BME280;3625;51.762;14.320;2023-05-21T02:22:48;101000.41;;;12.56;100.00
7168;BME280;3625;51.762;14.320;2023-05-21T02:25:18;100991.72;;;12.49;100.00
7168;BME280;3625;51.762;14.320;2023-05-21T02:27:48;100961.84;;;12.39;100.00
7168;BME280;3625;51.762;14.320;2023-05-21T02:30:19;100988.91;;;12.57;100.00
7168;BME280;3625;51.762;14.320;2023-05-21T02:32:48;100992.47;;;12.56;100.00
7168;BME280;3625;51.762;14.320;2023-05-21T02:35:17;100985.25;;;12.62;100.00
7168;BME280;3625;51.762;14.320;2023-05-21T02:37:45;100972.38;;;12.44;100.00
7168;BME280;3625;51.762;14.320;2023-05-21T02:40:15;100968.00;;;12.41;100.00
7168;BME280;3625;51.762;14.320;2023-05-21T02:42:43;100992.47;;;12.56;100.00
7168;BME280;3625;51.762;14.320;2023-05-21T02:45:18;100981.03;;;12.54;100.00
7168;BME280;3625;51.762;14.320;2023-05-21T02:47:47;100968.53;;;12.57;100.00
7168;BME280;3625;51.762;14.320;2023-05-21T02:50:18;100989.22;;;12.81;100.00
7168;BME280;3625;51.762;14.320;2023-05-21T02:52:55;100982.34;;;12.73;100.00
7168;BME280;3625;51.762;14.320;2023-05-21T02:55:26;100951.06;;;12.47;100.00
7168;BME280;3625;51.762;14.320;2023-05-21T02:57:54;100976.44;;;12.60;100.00
7168;BME280;3625;51.762;14.320;2023-05-21T03:00:24;100972.00;;;12.61;100.00
7168;BME280;3625;51.762;14.320;2023-05-21T03:02:53;100922.78;;;12.46;100.00
7168;BME280;3625;51.762;14.320;2023-05-21T03:05:22;100975.34;;;12.70;100.00
7168;BME280;3625;51.762;14.320;2023-05-21T03:07:50;100970.06;;;12.69;100.00
7168;BME280;3625;51.762;14.320;2023-05-21T03:10:20;100930.00;;;12.39;100.00
7168;BME280;3625;51.762;14.320;2023-05-21T03:12:49;100971.91;;;12.65;100.00
7168;BME280;3625;51.762;14.320;2023-05-21T03:15:20;100969.09;;;12.71;100.00
7168;BME280;3625;51.762;14.320;2023-05-21T03:17:51;100969.09;;;12.71;100.00
7168;BME280;3625;51.762;14.320;2023-05-21T03:20:22;100977.16;;;12.68;100.00
7168;BME280;3625;51.762;14.320;2023-05-21T03:22:51;100970.09;;;12.67;100.00
7168;BME280;3625;51.762;14.320;2023-05-21T03:25:21;100979.72;;;12.71;100.00
7168;BME280;3625;51.762;14.320;2023-05-21T03:27:53;100978.00;;;12.70;100.00
7168;BME280;3625;51.762;14.320;2023-05-21T03:30:41;100964.78;;;12.67;100.00
7168;BME280;3625;51.762;14.320;2023-05-21T03:33:32;100960.16;;;12.75;100.00
7168;BME280;3625;51.762;14.320;2023-05-21T03:36:09;100978.16;;;13.00;100.00
7168;BME280;3625;51.762;14.320;2023-05-21T03:38:38;100980.75;;;13.04;100.00
7168;BME280;3625;51.762;14.320;2023-05-21T03:41:09;100968.34;;;13.05;100.00
7168;BME280;3625;51.762;14.320;2023-05-21T03:43:39;100981.25;;;13.20;100.00
7168;BME280;3625;51.762;14.320;2023-05-21T03:46:08;100982.91;;;13.24;100.00
7168;BME280;3625;51.762;14.320;2023-05-21T03:48:59;100961.94;;;13.13;100.00
7168;BME280;3625;51.762;14.320;2023-05-21T03:51:29;100982.56;;;13.39;100.00
7168;BME280;3625;51.762;14.320;2023-05-21T03:53:58;100979.66;;;13.48;100.00
7168;BME280;3625;51.762;14.320;2023-05-21T03:56:27;100973.16;;;13.58;100.00
7168;BME280;3625;51.762;14.320;2023-05-21T03:58:56;100973.75;;;13.71;100.00
7168;BME280;3625;51.762;14.320;2023-05-21T04:01:25;100948.19;;;13.66;100.00
7168;BME280;3625;51.762;14.320;2023-05-21T04:03:56;100969.56;;;13.93;100.00
7168;BME280;3625;51.762;14.320;2023-05-21T04:06:28;100978.84;;;14.10;100.00
7168;BME280;3625;51.762;14.320;2023-05-21T04:08:57;100979.34;;;14.24;100.00
7168;BME280;3625;51.762;14.320;2023-05-21T04:11:25;100912.69;;;13.99;100.00
7168;BME280;3625;51.762;14.320;2023-05-21T04:13:54;100980.53;;;14.45;100.00
7168;BME280;3625;51.762;14.320;2023-05-21T04:16:22;100977.50;;;14.57;100.00
7168;BME280;3625;51.762;14.320;2023-05-21T04:18:52;100986.88;;;14.70;100.00
7168;BME280;3625;51.762;14.320;2023-05-21T04:21:25;100943.69;;;14.60;100.00
7168;BME280;3625;51.762;14.320;2023-05-21T04:23:59;100993.94;;;14.99;100.00
7168;BME280;3625;51.762;14.320;2023-05-21T04:26:43;100991.97;;;15.05;100.00
7168;BME280;3625;51.762;14.320;2023-05-21T04:29:11;100991.41;;;15.22;100.00
7168;BME280;3625;51.762;14.320;2023-05-21T04:31:44;100991.69;;;15.41;100.00
7168;BME280;3625;51.762;14.320;2023-05-21T04:34:13;100988.59;;;15.55;100.00
7168;BME280;3625;51.762;14.320;2023-05-21T04:36:44;100974.53;;;15.48;100.00
7168;BME280;3625;51.762;14.320;2023-05-21T04:39:14;100995.09;;;15.72;100.00
7168;BME280;3625;51.762;14.320;2023-05-21T04:41:43;100994.44;;;15.91;100.00
7168;BME280;3625;51.762;14.320;2023-05-21T04:44:14;101000.25;;;16.02;100.00
7168;BME280;3625;51.762;14.320;2023-05-21T04:46:44;101000.38;;;16.23;100.00
7168;BME280;3625;51.762;14.320;2023-05-21T04:49:13;100968.03;;;16.31;100.00
7168;BME280;3625;51.762;14.320;2023-05-21T04:51:42;100941.63;;;16.23;100.00
7168;BME280;3625;51.762;14.320;2023-05-21T04:54:11;100997.19;;;16.84;100.00
7168;BME280;3625;51.762;14.320;2023-05-21T04:56:41;100997.88;;;17.11;100.00
7168;BME280;3625;51.762;14.320;2023-05-21T04:59:10;100987.13;;;17.12;100.00
7168;BME280;3625;51.762;14.320;2023-05-21T05:01:39;101009.81;;;17.24;100.00
7168;BME280;3625;51.762;14.320;2023-05-21T05:04:10;101001.78;;;17.46;100.00
7168;BME280;3625;51.762;14.320;2023-05-21T05:06:39;100990.19;;;17.67;100.00
7168;BME280;3625;51.762;14.320;2023-05-21T05:09:07;101008.06;;;17.87;100.00
7168;BME280;3625;51.762;14.320;2023-05-21T05:11:36;101007.06;;;18.09;100.00
7168;BME280;3625;51.762;14.320;2023-05-21T05:14:07;101011.41;;;18.12;100.00
7168;BME280;3625;51.762;14.320;2023-05-21T05:16:35;101008.72;;;18.32;100.00
7168;BME280;3625;51.762;14.320;2023-05-21T05:19:04;100961.22;;;18.36;100.00
7168;BME280;3625;51.762;14.320;2023-05-21T05:21:33;101005.72;;;18.77;100.00
7168;BME280;3625;51.762;14.320;2023-05-21T05:24:01;101004.28;;;18.70;100.00
7168;BME280;3625;51.762;14.320;2023-05-21T05:26:31;100990.25;;;18.65;100.00
7168;BME280;3625;51.762;14.320;2023-05-21T05:28:59;101006.97;;;18.70;100.00
7168;BME280;3625;51.762;14.320;2023-05-21T05:31:29;101001.97;;;19.00;100.00
7168;BME280;3625;51.762;14.320;2023-05-21T05:33:58;101007.09;;;19.05;100.00
7168;BME280;3625;51.762;14.320;2023-05-21T05:36:28;101005.31;;;19.22;100.00
7168;BME280;3625;51.762;14.320;2023-05-21T05:38:57;101012.03;;;19.50;100.00
7168;BME280;3625;51.762;14.320;2023-05-21T05:41:26;101005.03;;;19.65;100.00
7168;BME280;3625;51.762;14.320;2023-05-21T05:43:55;101005.28;;;19.77;100.00
7168;BME280;3625;51.762;14.320;2023-05-21T05:46:29;101012.00;;;19.69;100.00
7168;BME280;3625;51.762;14.320;2023-05-21T05:48:58;100991.94;;;19.40;100.00
7168;BME280;3625;51.762;14.320;2023-05-21T05:51:26;101008.50;;;19.31;100.00
7168;BME280;3625;51.762;14.320;2023-05-21T05:53:56;100957.69;;;18.92;100.00
7168;BME280;3625;51.762;14.320;2023-05-21T05:56:24;100971.47;;;19.20;100.00
7168;BME280;3625;51.762;14.320;2023-05-21T05:58:53;100993.41;;;19.64;100.00
7168;BME280;3625;51.762;14.320;2023-05-21T06:01:22;100999.34;;;19.53;100.00
7168;BME280;3625;51.762;14.320;2023-05-21T06:03:53;101005.91;;;19.46;100.00
7168;BME280;3625;51.762;14.320;2023-05-21T06:06:24;100921.94;;;19.10;100.00
7168;BME280;3625;51.762;14.320;2023-05-21T06:08:52;100976.34;;;19.48;100.00
7168;BME280;3625;51.762;14.320;2023-05-21T06:11:23;100999.56;;;19.83;100.00
7168;BME280;3625;51.762;14.320;2023-05-21T06:13:51;100968.00;;;19.88;100.00
7168;BME280;3625;51.762;14.320;2023-05-21T06:16:20;100998.88;;;19.97;100.00
7168;BME280;3625;51.762;14.320;2023-05-21T06:18:49;101003.06;;;20.03;100.00
7168;BME280;3625;51.762;14.320;2023-05-21T06:21:19;101000.75;;;20.12;100.00
7168;BME280;3625;51.762;14.320;2023-05-21T06:23:48;101003.56;;;20.26;100.00
7168;BME280;3625;51.762;14.320;2023-05-21T06:26:16;100893.81;;;19.86;100.00
7168;BME280;3625;51.762;14.320;2023-05-21T06:28:47;101012.34;;;20.47;99.20
7168;BME280;3625;51.762;14.320;2023-05-21T06:31:16;101006.63;;;20.69;100.00
7168;BME280;3625;51.762;14.320;2023-05-21T06:33:45;101008.13;;;20.90;99.97
7168;BME280;3625;51.762;14.320;2023-05-21T06:36:17;101013.59;;;21.04;98.19
7168;BME280;3625;51.762;14.320;2023-05-21T06:38:47;101008.56;;;21.14;97.27
7168;BME280;3625;51.762;14.320;2023-05-21T06:41:15;100999.63;;;21.29;96.22
7168;BME280;3625;51.762;14.320;2023-05-21T06:43:51;101003.84;;;21.49;94.04
7168;BME280;3625;51.762;14.320;2023-05-21T06:46:31;100955.31;;;21.51;95.36
7168;BME280;3625;51.762;14.320;2023-05-21T06:49:05;100958.91;;;21.35;89.50
7168;BME280;3625;51.762;14.320;2023-05-21T06:51:35;101005.59;;;21.50;90.47
7168;BME280;3625;51.762;14.320;2023-05-21T06:54:06;101017.63;;;21.89;90.89
7168;BME280;3625;51.762;14.320;2023-05-21T06:56:36;101021.53;;;21.99;89.51
7168;BME280;3625;51.762;14.320;2023-05-21T06:59:05;101012.81;;;22.09;87.88
7168;BME280;3625;51.762;14.320;2023-05-21T07:01:34;101001.00;;;22.26;88.07
7168;BME280;3625;51.762;14.320;2023-05-21T07:04:03;101019.28;;;22.35;84.29
7168;BME280;3625;51.762;14.320;2023-05-21T07:06:32;100991.00;;;22.14;86.40
7168;BME280;3625;51.762;14.320;2023-05-21T07:09:01;101014.69;;;22.37;88.07
7168;BME280;3625;51.762;14.320;2023-05-21T07:11:31;100979.22;;;22.15;86.88
7168;BME280;3625;51.762;14.320;2023-05-21T07:14:02;101010.69;;;22.00;83.34
7168;BME280;3625;51.762;14.320;2023-05-21T07:16:33;101008.09;;;21.83;83.91
7168;BME280;3625;51.762;14.320;2023-05-21T07:19:02;100963.19;;;21.24;85.37
7168;BME280;3625;51.762;14.320;2023-05-21T07:21:31;101004.13;;;21.74;86.02
7168;BME280;3625;51.762;14.320;2023-05-21T07:24:00;100998.38;;;21.80;86.26
7168;BME280;3625;51.762;14.320;2023-05-21T07:26:30;101008.88;;;21.85;85.89
7168;BME280;3625;51.762;14.320;2023-05-21T07:29:00;101007.13;;;21.70;83.18
7168;BME280;3625;51.762;14.320;2023-05-21T07:31:29;101002.78;;;21.67;84.37
7168;BME280;3625;51.762;14.320;2023-05-21T07:33:57;101001.44;;;21.74;85.63
7168;BME280;3625;51.762;14.320;2023-05-21T07:36:29;100993.59;;;21.86;85.68
7168;BME280;3625;51.762;14.320;2023-05-21T07:39:00;100999.38;;;21.94;85.48
7168;BME280;3625;51.762;14.320;2023-05-21T07:41:31;100994.94;;;21.93;83.14
7168;BME280;3625;51.762;14.320;2023-05-21T07:44:04;100995.72;;;21.95;84.79
7168;BME280;3625;51.762;14.320;2023-05-21T07:46:37;100989.28;;;21.97;84.46
7168;BME280;3625;51.762;14.320;2023-05-21T07:49:06;100999.03;;;22.00;82.55
7168;BME280;3625;51.762;14.320;2023-05-21T07:51:36;100991.56;;;21.89;84.75
7168;BME280;3625;51.762;14.320;2023-05-21T07:54:05;100999.13;;;21.68;82.78
7168;BME280;3625;51.762;14.320;2023-05-21T07:56:36;100999.56;;;21.91;84.87
7168;BME280;3625;51.762;14.320;2023-05-21T07:59:07;101004.16;;;22.18;84.16
7168;BME280;3625;51.762;14.320;2023-05-21T08:01:39;101003.84;;;22.09;80.09
7168;BME280;3625;51.762;14.320;2023-05-21T08:04:11;101008.25;;;21.96;81.29
7168;BME280;3625;51.762;14.320;2023-05-21T08:06:40;101011.47;;;22.16;82.03
7168;BME280;3625;51.762;14.320;2023-05-21T08:09:09;101015.81;;;22.19;78.31
7168;BME280;3625;51.762;14.320;2023-05-21T08:11:39;101017.84;;;22.30;79.60
7168;BME280;3625;51.762;14.320;2023-05-21T08:14:08;101016.03;;;22.44;80.49
7168;BME280;3625;51.762;14.320;2023-05-21T08:16:37;101022.59;;;22.54;80.05
7168;BME280;3625;51.762;14.320;2023-05-21T08:19:06;100990.31;;;22.25;76.62
7168;BME280;3625;51.762;14.320;2023-05-21T08:21:35;101021.91;;;22.37;76.54
7168;BME280;3625;51.762;14.320;2023-05-21T08:24:03;101025.06;;;22.43;76.01
7168;BME280;3625;51.762;14.320;2023-05-21T08:26:32;101011.41;;;22.46;77.00
7168;BME280;3625;51.762;14.320;2023-05-21T08:29:02;101026.81;;;22.58;76.58
7168;BME280;3625;51.762;14.320;2023-05-21T08:31:31;101015.47;;;22.39;75.63
7168;BME280;3625;51.762;14.320;2023-05-21T08:34:00;101022.97;;;22.48;75.79
7168;BME280;3625;51.762;14.320;2023-05-21T08:36:38;101023.53;;;22.68;75.53
7168;BME280;3625;51.762;14.320;2023-05-21T08:39:24;101005.31;;;22.71;74.91
7168;BME280;3625;51.762;14.320;2023-05-21T08:42:03;101005.19;;;22.74;73.16
7168;BME280;3625;51.762;14.320;2023-05-21T08:44:45;101012.47;;;22.86;73.69
7168;BME280;3625;51.762;14.320;2023-05-21T08:47:25;101013.59;;;22.97;72.85
7168;BME280;3625;51.762;14.320;2023-05-21T08:49:54;101019.19;;;22.93;71.33
7168;BME280;3625;51.762;14.320;2023-05-21T08:52:24;101011.97;;;22.94;72.83
7168;BME280;3625;51.762;14.320;2023-05-21T08:54:55;101013.16;;;22.90;70.68
7168;BME280;3625;51.762;14.320;2023-05-21T08:57:25;101009.25;;;22.94;70.51
7168;BME280;3625;51.762;14.320;2023-05-21T08:59:57;101012.94;;;22.93;71.81
7168;BME280;3625;51.762;14.320;2023-05-21T09:02:28;101017.44;;;23.07;70.83
7168;BME280;3625;51.762;14.320;2023-05-21T09:05:02;101006.91;;;23.16;69.20
7168;BME280;3625;51.762;14.320;2023-05-21T09:07:38;101008.00;;;23.26;69.00
7168;BME280;3625;51.762;14.320;2023-05-21T09:10:28;101009.34;;;23.07;68.18
7168;BME280;3625;51.762;14.320;2023-05-21T09:12:59;101016.50;;;23.35;69.17
7168;BME280;3625;51.762;14.320;2023-05-21T09:15:30;101006.47;;;23.63;68.68
7168;BME280;3625;51.762;14.320;2023-05-21T09:17:59;100997.63;;;23.74;64.15
7168;BME280;3625;51.762;14.320;2023-05-21T09:20:40;101014.38;;;23.79;65.00
7168;BME280;3625;51.762;14.320;2023-05-21T09:23:08;101003.47;;;23.81;64.53
7168;BME280;3625;51.762;14.320;2023-05-21T09:25:45;101007.41;;;24.02;63.69
7168;BME280;3625;51.762;14.320;2023-05-21T09:28:23;101002.34;;;24.23;63.45
7168;BME280;3625;51.762;14.320;2023-05-21T09:30:53;101013.50;;;24.31;62.75
7168;BME280;3625;51.762;14.320;2023-05-21T09:33:26;101011.78;;;24.42;62.53
7168;BME280;3625;51.762;14.320;2023-05-21T09:35:57;101006.47;;;24.54;61.70
7168;BME280;3625;51.762;14.320;2023-05-21T09:38:26;101010.00;;;24.67;58.33
7168;BME280;3625;51.762;14.320;2023-05-21T09:40:56;101006.06;;;24.47;57.19
7168;BME280;3625;51.762;14.320;2023-05-21T09:43:26;101009.91;;;24.68;57.82
7168;BME280;3625;51.762;14.320;2023-05-21T09:45:58;101010.00;;;24.67;56.17
7168;BME280;3625;51.762;14.320;2023-05-21T09:48:33;100987.44;;;24.55;53.88
7168;BME280;3625;51.762;14.320;2023-05-21T09:51:09;101006.88;;;24.73;54.28
7168;BME280;3625;51.762;14.320;2023-05-21T09:53:50;101005.56;;;24.66;54.64
7168;BME280;3625;51.762;14.320;2023-05-21T09:56:21;101001.81;;;24.56;54.96
7168;BME280;3625;51.762;14.320;2023-05-21T09:58:54;100994.94;;;24.75;54.91
7168;BME280;3625;51.762;14.320;2023-05-21T10:01:25;100995.59;;;24.92;54.12
7168;BME280;3625;51.762;14.320;2023-05-21T10:03:56;100987.94;;;25.09;54.60
7168;BME280;3625;51.762;14.320;2023-05-21T10:06:27;100965.19;;;25.12;53.23
7168;BME280;3625;51.762;14.320;2023-05-21T10:08:59;100989.56;;;25.12;51.38
7168;BME280;3625;51.762;14.320;2023-05-21T10:11:33;100981.16;;;25.28;51.48
7168;BME280;3625;51.762;14.320;2023-05-21T10:14:05;100948.19;;;25.10;49.99
7168;BME280;3625;51.762;14.320;2023-05-21T10:16:36;100978.63;;;25.37;50.73
7168;BME280;3625;51.762;14.320;2023-05-21T10:19:06;100975.69;;;25.40;49.77
7168;BME280;3625;51.762;14.320;2023-05-21T10:21:38;100951.84;;;25.22;48.56
7168;BME280;3625;51.762;14.320;2023-05-21T10:24:08;100967.97;;;25.47;49.36
7168;BME280;3625;51.762;14.320;2023-05-21T10:26:40;100962.81;;;25.55;48.70
7168;BME280;3625;51.762;14.320;2023-05-21T10:29:09;100915.88;;;25.19;48.12
7168;BME280;3625;51.762;14.320;2023-05-21T10:31:43;100957.41;;;25.55;48.50
7168;BME280;3625;51.762;14.320;2023-05-21T10:34:16;100967.19;;;25.45;46.67
7168;BME280;3625;51.762;14.320;2023-05-21T10:36:47;100945.91;;;25.40;46.05
7168;BME280;3625;51.762;14.320;2023-05-21T10:39:18;100957.16;;;25.58;46.82
7168;BME280;3625;51.762;14.320;2023-05-21T10:42:00;100953.31;;;25.73;46.11
7168;BME280;3625;51.762;14.320;2023-05-21T10:44:52;100952.94;;;25.78;44.19
7168;BME280;3625;51.762;14.320;2023-05-21T10:47:52;100957.28;;;25.91;44.23
7168;BME280;3625;51.762;14.320;2023-05-21T10:50:56;100942.25;;;25.99;44.25
7168;BME280;3625;51.762;14.320;2023-05-21T10:53:47;100881.56;;;25.77;42.96
7168;BME280;3625;51.762;14.320;2023-05-21T10:56:28;100943.41;;;26.29;43.24
7168;BME280;3625;51.762;14.320;2023-05-21T10:59:14;100938.25;;;26.26;42.68
7168;BME280;3625;51.762;14.320;2023-05-21T11:01:50;100945.03;;;26.43;43.75
7168;BME280;3625;51.762;14.320;2023-05-21T11:04:26;100930.59;;;26.20;43.44
7168;BME280;3625;51.762;14.320;2023-05-21T11:06:57;100930.31;;;26.12;42.63
7168;BME280;3625;51.762;14.320;2023-05-21T11:09:26;100923.66;;;26.05;43.07
7168;BME280;3625;51.762;14.320;2023-05-21T11:11:57;100947.66;;;26.45;43.18
7168;BME280;3625;51.762;14.320;2023-05-21T11:14:33;100933.44;;;26.52;42.67
7168;BME280;3625;51.762;14.320;2023-05-21T11:17:09;100865.59;;;26.30;42.31
7168;BME280;3625;51.762;14.320;2023-05-21T11:19:41;100945.13;;;26.75;41.15
7168;BME280;3625;51.762;14.320;2023-05-21T11:22:21;100913.81;;;26.60;41.72
7168;BME280;3625;51.762;14.320;2023-05-21T11:24:52;100935.09;;;27.09;42.35
7168;BME280;3625;51.762;14.320;2023-05-21T11:27:39;100913.28;;;27.31;41.15
7168;BME280;3625;51.762;14.320;2023-05-21T11:30:14;100927.53;;;27.56;41.54
7168;BME280;3625;51.762;14.320;2023-05-21T11:33:16;100915.06;;;27.42;40.01
7168;BME280;3625;51.762;14.320;2023-05-21T11:35:57;100934.09;;;27.42;40.62
7168;BME280;3625;51.762;14.320;2023-05-21T11:38:27;100863.53;;;26.88;40.52
7168;BME280;3625;51.762;14.320;2023-05-21T11:41:02;100925.59;;;27.35;41.18
7168;BME280;3625;51.762;14.320;2023-05-21T11:43:31;100932.50;;;27.71;40.58
7168;BME280;3625;51.762;14.320;2023-05-21T11:46:00;100903.63;;;27.59;39.91
7168;BME280;3625;51.762;14.320;2023-05-21T11:48:30;100932.63;;;27.91;40.65
7168;BME280;3625;51.762;14.320;2023-05-21T11:51:01;100931.69;;;28.01;40.18
7168;BME280;3625;51.762;14.320;2023-05-21T11:53:30;100930.97;;;27.99;39.46
7168;BME280;3625;51.762;14.320;2023-05-21T11:56:01;100904.44;;;27.92;39.44
7168;BME280;3625;51.762;14.320;2023-05-21T11:58:30;100913.78;;;27.99;39.11
7168;BME280;3625;51.762;14.320;2023-05-21T12:00:59;100919.25;;;28.29;39.43
7168;BME280;3625;51.762;14.320;2023-05-21T12:03:27;100923.66;;;28.21;38.57
7168;BME280;3625;51.762;14.320;2023-05-21T12:06:05;100923.81;;;28.19;39.07
7168;BME280;3625;51.762;14.320;2023-05-21T12:08:34;100861.47;;;27.95;39.50
7168;BME280;3625;51.762;14.320;2023-05-21T12:11:04;100926.91;;;27.94;39.84
7168;BME280;3625;51.762;14.320;2023-05-21T12:13:33;100922.06;;;27.76;40.20
7168;BME280;3625;51.762;14.320;2023-05-21T12:16:02;100914.72;;;27.88;40.00
7168;BME280;3625;51.762;14.320;2023-05-21T12:18:33;100918.81;;;28.24;39.90
7168;BME280;3625;51.762;14.320;2023-05-21T12:21:05;100926.59;;;28.38;39.26
7168;BME280;3625;51.762;14.320;2023-05-21T12:23:38;100929.06;;;28.41;39.47
7168;BME280;3625;51.762;14.320;2023-05-21T12:26:08;100927.53;;;28.58;38.93
7168;BME280;3625;51.762;14.320;2023-05-21T12:28:38;100923.03;;;28.47;38.07
7168;BME280;3625;51.762;14.320;2023-05-21T12:31:14;100882.88;;;28.30;38.60
7168;BME280;3625;51.762;14.320;2023-05-21T12:33:44;100902.88;;;28.60;38.75
7168;BME280;3625;51.762;14.320;2023-05-21T12:36:24;100755.78;;;27.81;38.27
7168;BME280;3625;51.762;14.320;2023-05-21T12:38:53;100901.41;;;28.86;38.47
7168;BME280;3625;51.762;14.320;2023-05-21T12:41:22;100850.16;;;28.61;38.56
7168;BME280;3625;51.762;14.320;2023-05-21T12:43:51;100890.00;;;28.62;38.40
7168;BME280;3625;51.762;14.320;2023-05-21T12:46:20;100929.28;;;28.69;38.95
7168;BME280;3625;51.762;14.320;2023-05-21T12:48:52;100916.97;;;28.74;39.35
7168;BME280;3625;51.762;14.320;2023-05-21T12:51:23;100934.00;;;28.27;39.14
7168;BME280;3625;51.762;14.320;2023-05-21T12:53:51;100926.03;;;28.35;39.39
7168;BME280;3625;51.762;14.320;2023-05-21T12:56:20;100884.41;;;27.93;38.80
7168;BME280;3625;51.762;14.320;2023-05-21T12:58:53;100925.25;;;28.23;39.46
7168;BME280;3625;51.762;14.320;2023-05-21T13:01:21;100873.00;;;28.08;38.83
7168;BME280;3625;51.762;14.320;2023-05-21T13:03:50;100918.00;;;28.12;38.85
7168;BME280;3625;51.762;14.320;2023-05-21T13:06:18;100884.03;;;28.07;38.92
7168;BME280;3625;51.762;14.320;2023-05-21T13:08:48;100903.09;;;28.37;39.07
7168;BME280;3625;51.762;14.320;2023-05-21T13:11:17;100862.00;;;28.10;39.01
7168;BME280;3625;51.762;14.320;2023-05-21T13:13:46;100912.28;;;28.36;38.78
7168;BME280;3625;51.762;14.320;2023-05-21T13:16:14;100898.63;;;27.75;39.58
7168;BME280;3625;51.762;14.320;2023-05-21T13:18:43;100891.56;;;27.73;39.53